RYR32UX LPPR-LEPA
Flight info
| Callsign | RYR32UX |
|---|---|
| Flight time | 1h 43m |
| Altitude | 39000 |
| Route | PESUL DCT RIVRO DCT BARDI M191 DIPOL M871 NVS DCT NANDO DCT MINGU DCT ABOSI DCT MABUX DCT RETBA DCT MOPIR DCT LASPO M871 GODOX |
| Aircraft | B38M/M-SDE1FGHILORVWXY/HB1 |
Departure
| Time | 2026-05-07 17:43 |
|---|---|
| Airport | Francisco de Sá Carneiro Airport (LPPR) |
Arrival
| Time | 2026-05-07 19:27 |
|---|---|
| Airport | Palma de Mallorca Airport (LEPA) |
| Time | Latitude | Longitude | Altitude | Speed | Heading |
|---|---|---|---|---|---|
| 2026-05-07 17:20 | 41.23870 | -8.67392 | 246 ft | 0 kts | 79° |
| 2026-05-07 17:23 | 41.23869 | -8.67392 | 246 ft | 0 kts | 79° |
| 2026-05-07 17:34 | 41.23866 | -8.67416 | 245 ft | 4 kts | 84° |
| 2026-05-07 17:34 | 41.23866 | -8.67451 | 243 ft | 4 kts | 98° |
| 2026-05-07 17:35 | 41.23874 | -8.67482 | 242 ft | 4 kts | 135° |
| 2026-05-07 17:35 | 41.23886 | -8.67492 | 241 ft | 1 kts | 169° |
| 2026-05-07 17:38 | 41.23876 | -8.67489 | 241 ft | 4 kts | 169° |
| 2026-05-07 17:38 | 41.23827 | -8.67477 | 241 ft | 11 kts | 169° |
| 2026-05-07 17:39 | 41.23718 | -8.67448 | 240 ft | 21 kts | 168° |
| 2026-05-07 17:39 | 41.23568 | -8.67409 | 241 ft | 24 kts | 169° |
| 2026-05-07 17:39 | 41.23417 | -8.67370 | 242 ft | 17 kts | 169° |
| 2026-05-07 17:39 | 41.23330 | -8.67431 | 238 ft | 15 kts | 254° |
| 2026-05-07 17:40 | 41.23310 | -8.67585 | 238 ft | 19 kts | 261° |
| 2026-05-07 17:40 | 41.23297 | -8.67719 | 240 ft | 5 kts | 287° |
| 2026-05-07 17:40 | 41.23348 | -8.67743 | 240 ft | 12 kts | 351° |
| 2026-05-07 17:40 | 41.23381 | -8.67752 | 240 ft | 0 kts | 348° |
| 2026-05-07 17:43 | 41.23408 | -8.67759 | 240 ft | 11 kts | 348° |
| 2026-05-07 17:43 | 41.23727 | -8.67843 | 230 ft | 92 kts | 349° |
| 2026-05-07 17:43 | 41.24630 | -8.68081 | 230 ft | 167 kts | 346° |
| 2026-05-07 17:43 | 41.25857 | -8.68421 | 900 ft | 192 kts | 345° |
| 2026-05-07 17:44 | 41.27230 | -8.68822 | 1823 ft | 210 kts | 345° |
| 2026-05-07 17:44 | 41.28746 | -8.69218 | 2226 ft | 237 kts | 346° |
| 2026-05-07 17:44 | 41.30373 | -8.69623 | 3181 ft | 235 kts | 347° |
| 2026-05-07 17:44 | 41.32012 | -8.70039 | 3963 ft | 245 kts | 346° |
| 2026-05-07 17:45 | 41.33752 | -8.70488 | 4532 ft | 264 kts | 346° |
| 2026-05-07 17:45 | 41.35613 | -8.70973 | 5129 ft | 278 kts | 346° |
| 2026-05-07 17:45 | 41.37543 | -8.71270 | 5969 ft | 285 kts | 4° |
| 2026-05-07 17:45 | 41.39391 | -8.70382 | 6648 ft | 293 kts | 38° |
| 2026-05-07 17:46 | 41.40657 | -8.68319 | 7434 ft | 289 kts | 71° |
| 2026-05-07 17:46 | 41.40945 | -8.65737 | 8238 ft | 281 kts | 101° |
| 2026-05-07 17:46 | 41.40375 | -8.63273 | 9035 ft | 278 kts | 120° |
| 2026-05-07 17:46 | 41.39543 | -8.60922 | 9853 ft | 282 kts | 118° |
| 2026-05-07 17:47 | 41.38728 | -8.58514 | 10405 ft | 294 kts | 117° |
| 2026-05-07 17:47 | 41.37884 | -8.55944 | 10807 ft | 310 kts | 116° |
| 2026-05-07 17:47 | 41.37307 | -8.54178 | 11157 ft | 317 kts | 116° |
| 2026-05-07 17:47 | 41.36410 | -8.51451 | 11848 ft | 322 kts | 116° |
| 2026-05-07 17:48 | 41.35494 | -8.48708 | 12636 ft | 327 kts | 116° |
| 2026-05-07 17:48 | 41.34249 | -8.45017 | 13686 ft | 332 kts | 117° |
| 2026-05-07 17:48 | 41.33607 | -8.43113 | 14168 ft | 334 kts | 117° |
| 2026-05-07 17:48 | 41.32643 | -8.40275 | 14872 ft | 338 kts | 117° |
| 2026-05-07 17:49 | 41.31665 | -8.37400 | 15612 ft | 343 kts | 116° |
| 2026-05-07 17:49 | 41.30682 | -8.34507 | 16348 ft | 347 kts | 116° |
| 2026-05-07 17:49 | 41.29679 | -8.31574 | 17054 ft | 351 kts | 116° |
| 2026-05-07 17:49 | 41.28677 | -8.28629 | 17725 ft | 356 kts | 116° |
| 2026-05-07 17:50 | 41.27647 | -8.25613 | 18379 ft | 361 kts | 116° |
| 2026-05-07 17:50 | 41.26602 | -8.22556 | 18942 ft | 366 kts | 115° |
| 2026-05-07 17:50 | 41.25537 | -8.19458 | 19479 ft | 371 kts | 116° |
| 2026-05-07 17:50 | 41.24461 | -8.16313 | 20014 ft | 376 kts | 116° |
| 2026-05-07 17:51 | 41.23363 | -8.13125 | 20496 ft | 383 kts | 116° |
| 2026-05-07 17:51 | 41.22254 | -8.09888 | 21089 ft | 386 kts | 116° |
| 2026-05-07 17:51 | 41.21128 | -8.06617 | 21605 ft | 391 kts | 115° |
| 2026-05-07 17:51 | 41.19990 | -8.03320 | 22162 ft | 395 kts | 116° |
| 2026-05-07 17:52 | 41.18839 | -7.99979 | 22647 ft | 400 kts | 116° |
| 2026-05-07 17:52 | 41.17667 | -7.96593 | 23146 ft | 405 kts | 115° |
| 2026-05-07 17:52 | 41.16491 | -7.93182 | 23688 ft | 408 kts | 116° |
| 2026-05-07 17:52 | 41.15301 | -7.89744 | 24121 ft | 411 kts | 116° |
| 2026-05-07 17:53 | 41.14097 | -7.86279 | 24565 ft | 415 kts | 116° |
| 2026-05-07 17:53 | 41.12885 | -7.82794 | 24996 ft | 418 kts | 116° |
| 2026-05-07 17:53 | 41.11677 | -7.79323 | 25403 ft | 421 kts | 116° |
| 2026-05-07 17:53 | 41.10429 | -7.75733 | 25818 ft | 424 kts | 116° |
| 2026-05-07 17:54 | 41.09204 | -7.72225 | 26211 ft | 428 kts | 116° |
| 2026-05-07 17:54 | 41.07951 | -7.68630 | 26591 ft | 431 kts | 117° |
| 2026-05-07 17:54 | 41.06685 | -7.65015 | 27004 ft | 434 kts | 117° |
| 2026-05-07 17:54 | 41.05406 | -7.61362 | 27383 ft | 438 kts | 117° |
| 2026-05-07 17:55 | 41.04118 | -7.57696 | 27766 ft | 441 kts | 117° |
| 2026-05-07 17:55 | 41.02815 | -7.53980 | 28052 ft | 447 kts | 117° |
| 2026-05-07 17:55 | 41.01501 | -7.50233 | 28443 ft | 449 kts | 117° |
| 2026-05-07 17:55 | 41.00187 | -7.46507 | 28800 ft | 452 kts | 117° |
| 2026-05-07 17:56 | 40.98856 | -7.42737 | 29169 ft | 455 kts | 117° |
| 2026-05-07 17:56 | 40.97508 | -7.38919 | 29507 ft | 459 kts | 118° |
| 2026-05-07 17:56 | 40.96153 | -7.35082 | 29846 ft | 462 kts | 118° |
| 2026-05-07 17:56 | 40.94783 | -7.31212 | 30158 ft | 464 kts | 118° |
| 2026-05-07 17:57 | 40.93408 | -7.27337 | 30466 ft | 466 kts | 118° |
| 2026-05-07 17:57 | 40.92494 | -7.24762 | 30652 ft | 468 kts | 118° |
| 2026-05-07 17:57 | 40.90635 | -7.19536 | 31024 ft | 472 kts | 118° |
| 2026-05-07 17:57 | 40.89232 | -7.15593 | 31212 ft | 477 kts | 118° |
| 2026-05-07 17:58 | 40.87823 | -7.11637 | 31536 ft | 478 kts | 118° |
| 2026-05-07 17:58 | 40.86416 | -7.07698 | 31791 ft | 481 kts | 118° |
| 2026-05-07 17:58 | 40.84985 | -7.03691 | 31898 ft | 484 kts | 118° |
| 2026-05-07 17:58 | 40.83546 | -6.99671 | 31876 ft | 482 kts | 118° |
| 2026-05-07 17:59 | 40.80675 | -6.91679 | 31861 ft | 481 kts | 118° |
| 2026-05-07 17:59 | 40.77800 | -6.83693 | 31863 ft | 481 kts | 118° |
| 2026-05-07 18:00 | 40.74915 | -6.75705 | 31865 ft | 484 kts | 118° |
| 2026-05-07 18:00 | 40.72026 | -6.67721 | 31861 ft | 485 kts | 118° |
| 2026-05-07 18:01 | 40.69120 | -6.59714 | 31861 ft | 484 kts | 118° |
| 2026-05-07 18:01 | 40.66212 | -6.51726 | 31856 ft | 483 kts | 118° |
| 2026-05-07 18:02 | 40.61935 | -6.39657 | 32141 ft | 491 kts | 108° |
| 2026-05-07 18:02 | 40.61368 | -6.35236 | 32486 ft | 492 kts | 92° |
| 2026-05-07 18:03 | 40.61168 | -6.30726 | 32670 ft | 496 kts | 97° |
| 2026-05-07 18:03 | 40.60608 | -6.26243 | 32927 ft | 498 kts | 100° |
| 2026-05-07 18:03 | 40.60055 | -6.21746 | 33198 ft | 501 kts | 99° |
| 2026-05-07 18:03 | 40.59520 | -6.17201 | 33437 ft | 503 kts | 99° |
| 2026-05-07 18:04 | 40.58996 | -6.12644 | 33715 ft | 505 kts | 99° |
| 2026-05-07 18:04 | 40.58474 | -6.08058 | 33970 ft | 508 kts | 98° |
| 2026-05-07 18:04 | 40.57951 | -6.03446 | 34173 ft | 511 kts | 98° |
| 2026-05-07 18:04 | 40.57428 | -5.98872 | 34446 ft | 511 kts | 98° |
| 2026-05-07 18:05 | 40.56899 | -5.94255 | 34809 ft | 510 kts | 98° |
| 2026-05-07 18:05 | 40.56368 | -5.89634 | 35127 ft | 509 kts | 98° |
| 2026-05-07 18:05 | 40.55836 | -5.85031 | 35449 ft | 508 kts | 99° |
| 2026-05-07 18:05 | 40.55306 | -5.80442 | 35776 ft | 507 kts | 99° |
| 2026-05-07 18:06 | 40.54773 | -5.75854 | 36085 ft | 507 kts | 99° |
| 2026-05-07 18:06 | 40.54240 | -5.71288 | 36396 ft | 506 kts | 99° |
| 2026-05-07 18:06 | 40.53706 | -5.66717 | 36667 ft | 506 kts | 99° |
| 2026-05-07 18:06 | 40.53169 | -5.62146 | 36901 ft | 506 kts | 99° |
| 2026-05-07 18:07 | 40.52631 | -5.57590 | 37183 ft | 505 kts | 99° |
| 2026-05-07 18:07 | 40.52091 | -5.53031 | 37466 ft | 504 kts | 99° |
| 2026-05-07 18:07 | 40.51550 | -5.48477 | 37735 ft | 504 kts | 99° |
| 2026-05-07 18:07 | 40.51009 | -5.43925 | 38000 ft | 503 kts | 99° |
| 2026-05-07 18:08 | 40.50467 | -5.39397 | 38262 ft | 502 kts | 99° |
| 2026-05-07 18:08 | 40.49924 | -5.34870 | 38504 ft | 501 kts | 99° |
| 2026-05-07 18:08 | 40.49381 | -5.30351 | 38711 ft | 501 kts | 100° |
| 2026-05-07 18:08 | 40.48837 | -5.25843 | 38829 ft | 501 kts | 100° |
| 2026-05-07 18:09 | 40.48288 | -5.21322 | 38908 ft | 503 kts | 100° |
| 2026-05-07 18:09 | 40.47175 | -5.12185 | 38899 ft | 510 kts | 100° |
| 2026-05-07 18:10 | 40.46047 | -5.02991 | 38896 ft | 514 kts | 100° |
| 2026-05-07 18:10 | 40.44905 | -4.93737 | 38911 ft | 514 kts | 100° |
| 2026-05-07 18:11 | 40.43750 | -4.84445 | 38905 ft | 517 kts | 100° |
| 2026-05-07 18:11 | 40.42585 | -4.75132 | 38903 ft | 517 kts | 101° |
| 2026-05-07 18:12 | 40.41469 | -4.65785 | 38909 ft | 517 kts | 99° |
| 2026-05-07 18:12 | 40.40436 | -4.56442 | 38905 ft | 517 kts | 99° |
| 2026-05-07 18:13 | 40.39390 | -4.47131 | 38909 ft | 515 kts | 99° |
| 2026-05-07 18:13 | 40.38345 | -4.37888 | 38907 ft | 517 kts | 99° |
| 2026-05-07 18:14 | 40.37280 | -4.28552 | 38915 ft | 519 kts | 99° |
| 2026-05-07 18:14 | 40.35789 | -4.19302 | 38933 ft | 517 kts | 105° |
| 2026-05-07 18:15 | 40.34157 | -4.10164 | 38915 ft | 517 kts | 104° |
| 2026-05-07 18:15 | 40.32550 | -4.00961 | 38916 ft | 517 kts | 104° |
| 2026-05-07 18:16 | 40.30943 | -3.91785 | 38912 ft | 517 kts | 104° |
| 2026-05-07 18:16 | 40.29327 | -3.82601 | 38914 ft | 517 kts | 104° |
| 2026-05-07 18:17 | 40.27704 | -3.73417 | 38910 ft | 517 kts | 104° |
| 2026-05-07 18:17 | 40.26067 | -3.64238 | 38913 ft | 517 kts | 105° |
| 2026-05-07 18:18 | 40.24167 | -3.55239 | 38916 ft | 516 kts | 107° |
| 2026-05-07 18:18 | 40.22264 | -3.46166 | 38914 ft | 516 kts | 107° |
| 2026-05-07 18:19 | 40.20363 | -3.37108 | 38907 ft | 515 kts | 107° |
| 2026-05-07 18:19 | 40.18464 | -3.28091 | 38939 ft | 517 kts | 107° |
| 2026-05-07 18:20 | 40.16543 | -3.19013 | 38926 ft | 517 kts | 107° |
| 2026-05-07 18:20 | 40.14613 | -3.09932 | 38930 ft | 518 kts | 107° |
| 2026-05-07 18:21 | 40.12684 | -3.00887 | 38935 ft | 516 kts | 107° |
| 2026-05-07 18:21 | 40.10769 | -2.91952 | 38932 ft | 513 kts | 107° |
| 2026-05-07 18:22 | 40.08837 | -2.82970 | 38941 ft | 513 kts | 107° |
| 2026-05-07 18:22 | 40.06897 | -2.73995 | 38949 ft | 513 kts | 107° |
| 2026-05-07 18:23 | 40.04953 | -2.65035 | 38960 ft | 513 kts | 107° |
| 2026-05-07 18:23 | 40.03002 | -2.56078 | 38957 ft | 512 kts | 107° |
| 2026-05-07 18:24 | 40.01046 | -2.47139 | 38954 ft | 512 kts | 107° |
| 2026-05-07 18:24 | 39.99086 | -2.38215 | 38964 ft | 514 kts | 107° |
| 2026-05-07 18:25 | 39.97116 | -2.29283 | 38963 ft | 515 kts | 107° |
| 2026-05-07 18:25 | 39.95136 | -2.20336 | 38974 ft | 512 kts | 107° |
| 2026-05-07 18:26 | 39.93153 | -2.11420 | 38981 ft | 512 kts | 108° |
| 2026-05-07 18:26 | 39.91166 | -2.02515 | 38978 ft | 512 kts | 108° |
| 2026-05-07 18:27 | 39.89171 | -1.93615 | 39007 ft | 512 kts | 108° |
| 2026-05-07 18:27 | 39.87171 | -1.84729 | 39003 ft | 510 kts | 108° |
| 2026-05-07 18:28 | 39.85174 | -1.75887 | 38992 ft | 509 kts | 108° |
| 2026-05-07 18:28 | 39.83180 | -1.67093 | 39001 ft | 509 kts | 108° |
| 2026-05-07 18:29 | 39.81168 | -1.58256 | 39005 ft | 509 kts | 108° |
| 2026-05-07 18:29 | 39.79151 | -1.49429 | 38960 ft | 510 kts | 108° |
| 2026-05-07 18:30 | 39.77119 | -1.40579 | 38964 ft | 512 kts | 108° |
| 2026-05-07 18:30 | 39.75072 | -1.31691 | 38940 ft | 512 kts | 108° |
| 2026-05-07 18:31 | 39.73021 | -1.22821 | 38934 ft | 512 kts | 108° |
| 2026-05-07 18:31 | 39.70963 | -1.13957 | 38937 ft | 512 kts | 108° |
| 2026-05-07 18:32 | 39.69252 | -1.06616 | 38934 ft | 510 kts | 109° |
| 2026-05-07 18:32 | 39.67193 | -0.97807 | 38946 ft | 510 kts | 109° |
| 2026-05-07 18:33 | 39.65127 | -0.89002 | 38966 ft | 509 kts | 109° |
| 2026-05-07 18:33 | 39.63060 | -0.80231 | 38966 ft | 510 kts | 109° |
| 2026-05-07 18:34 | 39.60980 | -0.71435 | 38973 ft | 511 kts | 109° |
| 2026-05-07 18:34 | 39.58889 | -0.62628 | 38963 ft | 511 kts | 109° |
| 2026-05-07 18:35 | 39.56786 | -0.53799 | 38947 ft | 512 kts | 109° |
| 2026-05-07 18:35 | 39.54683 | -0.45011 | 38996 ft | 514 kts | 109° |
| 2026-05-07 18:36 | 39.52562 | -0.36175 | 38990 ft | 514 kts | 109° |
| 2026-05-07 18:36 | 39.51499 | -0.31757 | 38869 ft | 504 kts | 110° |
| 2026-05-07 18:36 | 39.50465 | -0.27471 | 38127 ft | 505 kts | 109° |
| 2026-05-07 18:36 | 39.49414 | -0.23120 | 37368 ft | 506 kts | 109° |
| 2026-05-07 18:37 | 39.48364 | -0.18783 | 36614 ft | 507 kts | 109° |
| 2026-05-07 18:37 | 39.47304 | -0.14414 | 35854 ft | 509 kts | 109° |
| 2026-05-07 18:37 | 39.46242 | -0.10039 | 35093 ft | 511 kts | 109° |
| 2026-05-07 18:37 | 39.45169 | -0.05634 | 34335 ft | 513 kts | 109° |
| 2026-05-07 18:38 | 39.44092 | -0.01220 | 33522 ft | 516 kts | 108° |
| 2026-05-07 18:38 | 39.43011 | 0.03209 | 32783 ft | 514 kts | 109° |
| 2026-05-07 18:38 | 39.41941 | 0.07584 | 32262 ft | 507 kts | 109° |
| 2026-05-07 18:38 | 39.40885 | 0.11881 | 31759 ft | 500 kts | 109° |
| 2026-05-07 18:39 | 39.39839 | 0.16133 | 31277 ft | 494 kts | 110° |
| 2026-05-07 18:39 | 39.38804 | 0.20343 | 30817 ft | 487 kts | 110° |
| 2026-05-07 18:39 | 39.37797 | 0.24436 | 30383 ft | 480 kts | 110° |
| 2026-05-07 18:39 | 39.36788 | 0.28516 | 29949 ft | 473 kts | 110° |
| 2026-05-07 18:40 | 39.35791 | 0.32543 | 29458 ft | 466 kts | 110° |
| 2026-05-07 18:40 | 39.34812 | 0.36498 | 28952 ft | 460 kts | 110° |
| 2026-05-07 18:40 | 39.33849 | 0.40434 | 28247 ft | 460 kts | 107° |
| 2026-05-07 18:40 | 39.33413 | 0.44502 | 27793 ft | 457 kts | 91° |
| 2026-05-07 18:41 | 39.33559 | 0.48557 | 27450 ft | 448 kts | 89° |
| 2026-05-07 18:41 | 39.33697 | 0.52551 | 27041 ft | 442 kts | 89° |
| 2026-05-07 18:41 | 39.33849 | 0.56489 | 26625 ft | 436 kts | 89° |
| 2026-05-07 18:41 | 39.34011 | 0.60388 | 26155 ft | 432 kts | 88° |
| 2026-05-07 18:42 | 39.34176 | 0.64245 | 25730 ft | 427 kts | 89° |
| 2026-05-07 18:42 | 39.34342 | 0.68058 | 25289 ft | 423 kts | 89° |
| 2026-05-07 18:42 | 39.34504 | 0.71819 | 24876 ft | 418 kts | 89° |
| 2026-05-07 18:42 | 39.34663 | 0.75542 | 24463 ft | 414 kts | 89° |
| 2026-05-07 18:43 | 39.34819 | 0.79227 | 24057 ft | 409 kts | 89° |
| 2026-05-07 18:43 | 39.34970 | 0.82820 | 23719 ft | 403 kts | 90° |
| 2026-05-07 18:43 | 39.35121 | 0.86419 | 23255 ft | 400 kts | 90° |
| 2026-05-07 18:43 | 39.35270 | 0.89998 | 22745 ft | 397 kts | 90° |
| 2026-05-07 18:44 | 39.35415 | 0.93585 | 21913 ft | 403 kts | 90° |
| 2026-05-07 18:44 | 39.35563 | 0.97216 | 21249 ft | 404 kts | 89° |
| 2026-05-07 18:44 | 39.35709 | 1.00822 | 20879 ft | 398 kts | 89° |
| 2026-05-07 18:44 | 39.35852 | 1.04370 | 20458 ft | 394 kts | 89° |
| 2026-05-07 18:45 | 39.35990 | 1.07829 | 20035 ft | 391 kts | 89° |
| 2026-05-07 18:45 | 39.36128 | 1.11324 | 19599 ft | 388 kts | 89° |
| 2026-05-07 18:45 | 39.36264 | 1.14804 | 19159 ft | 386 kts | 89° |
| 2026-05-07 18:45 | 39.36399 | 1.18249 | 18743 ft | 383 kts | 89° |
| 2026-05-07 18:46 | 39.36532 | 1.21685 | 18321 ft | 381 kts | 89° |
| 2026-05-07 18:46 | 39.36662 | 1.25087 | 17852 ft | 378 kts | 89° |
| 2026-05-07 18:46 | 39.36791 | 1.28465 | 17408 ft | 375 kts | 89° |
| 2026-05-07 18:46 | 39.36917 | 1.31816 | 16991 ft | 371 kts | 89° |
| 2026-05-07 18:47 | 39.37042 | 1.35126 | 16577 ft | 367 kts | 89° |
| 2026-05-07 18:47 | 39.37164 | 1.38389 | 16170 ft | 364 kts | 89° |
| 2026-05-07 18:47 | 39.37360 | 1.41649 | 15723 ft | 363 kts | 81° |
| 2026-05-07 18:47 | 39.37834 | 1.44798 | 15333 ft | 360 kts | 81° |
| 2026-05-07 18:48 | 39.38271 | 1.47966 | 14953 ft | 356 kts | 81° |
| 2026-05-07 18:48 | 39.38691 | 1.51107 | 14571 ft | 353 kts | 82° |
| 2026-05-07 18:48 | 39.39099 | 1.54223 | 14194 ft | 350 kts | 82° |
| 2026-05-07 18:48 | 39.39500 | 1.57317 | 13810 ft | 347 kts | 82° |
| 2026-05-07 18:49 | 39.39895 | 1.60370 | 13574 ft | 339 kts | 82° |
| 2026-05-07 18:49 | 39.40277 | 1.63343 | 13376 ft | 330 kts | 82° |
| 2026-05-07 18:49 | 39.40649 | 1.66230 | 13202 ft | 321 kts | 82° |
| 2026-05-07 18:49 | 39.41008 | 1.69034 | 13053 ft | 311 kts | 82° |
| 2026-05-07 18:50 | 39.41355 | 1.71747 | 12912 ft | 302 kts | 81° |
| 2026-05-07 18:50 | 39.41692 | 1.74381 | 12778 ft | 293 kts | 81° |
| 2026-05-07 18:50 | 39.42014 | 1.76907 | 12655 ft | 283 kts | 81° |
| 2026-05-07 18:50 | 39.42330 | 1.79380 | 12540 ft | 274 kts | 81° |
| 2026-05-07 18:51 | 39.42635 | 1.81781 | 12381 ft | 268 kts | 81° |
| 2026-05-07 18:51 | 39.42935 | 1.84150 | 12153 ft | 266 kts | 81° |
| 2026-05-07 18:51 | 39.43234 | 1.86507 | 11862 ft | 265 kts | 81° |
| 2026-05-07 18:51 | 39.43531 | 1.88857 | 11565 ft | 264 kts | 81° |
| 2026-05-07 18:52 | 39.43826 | 1.91200 | 11284 ft | 264 kts | 81° |
| 2026-05-07 18:52 | 39.44121 | 1.93539 | 10989 ft | 263 kts | 81° |
| 2026-05-07 18:52 | 39.44414 | 1.95864 | 10688 ft | 261 kts | 80° |
| 2026-05-07 18:52 | 39.44701 | 1.98177 | 10400 ft | 260 kts | 82° |
| 2026-05-07 18:53 | 39.44602 | 2.00496 | 10085 ft | 261 kts | 107° |
| 2026-05-07 18:53 | 39.43681 | 2.02484 | 9798 ft | 262 kts | 135° |
| 2026-05-07 18:53 | 39.42139 | 2.03657 | 9649 ft | 256 kts | 162° |
| 2026-05-07 18:53 | 39.40439 | 2.04309 | 9498 ft | 255 kts | 151° |
| 2026-05-07 18:54 | 39.39120 | 2.05753 | 9325 ft | 248 kts | 121° |
| 2026-05-07 18:54 | 39.38548 | 2.07810 | 9235 ft | 244 kts | 95° |
| 2026-05-07 18:54 | 39.38429 | 2.10004 | 9193 ft | 246 kts | 91° |
| 2026-05-07 18:54 | 39.38332 | 2.12217 | 9089 ft | 246 kts | 92° |
| 2026-05-07 18:55 | 39.38234 | 2.14424 | 8921 ft | 245 kts | 92° |
| 2026-05-07 18:55 | 39.38137 | 2.16594 | 8714 ft | 245 kts | 92° |
| 2026-05-07 18:55 | 39.38037 | 2.18786 | 8503 ft | 244 kts | 92° |
| 2026-05-07 18:55 | 39.37937 | 2.20977 | 8307 ft | 243 kts | 92° |
| 2026-05-07 18:56 | 39.37838 | 2.23154 | 8140 ft | 242 kts | 92° |
| 2026-05-07 18:56 | 39.37742 | 2.25318 | 7966 ft | 241 kts | 91° |
| 2026-05-07 18:56 | 39.37645 | 2.27475 | 7802 ft | 240 kts | 92° |
| 2026-05-07 18:56 | 39.37612 | 2.29624 | 7667 ft | 237 kts | 80° |
| 2026-05-07 18:57 | 39.38242 | 2.31560 | 7519 ft | 235 kts | 54° |
| 2026-05-07 18:57 | 39.39264 | 2.33226 | 7416 ft | 237 kts | 52° |
| 2026-05-07 18:57 | 39.40293 | 2.34865 | 7249 ft | 235 kts | 52° |
| 2026-05-07 18:57 | 39.41319 | 2.36497 | 7020 ft | 232 kts | 52° |
| 2026-05-07 18:58 | 39.42318 | 2.38086 | 6806 ft | 229 kts | 52° |
| 2026-05-07 18:58 | 39.43311 | 2.39669 | 6607 ft | 225 kts | 51° |
| 2026-05-07 18:58 | 39.44285 | 2.41228 | 6406 ft | 220 kts | 52° |
| 2026-05-07 18:58 | 39.45231 | 2.42774 | 6219 ft | 220 kts | 57° |
| 2026-05-07 18:59 | 39.45828 | 2.44616 | 6082 ft | 227 kts | 77° |
| 2026-05-07 18:59 | 39.46085 | 2.46622 | 5878 ft | 231 kts | 81° |
| 2026-05-07 18:59 | 39.46302 | 2.48692 | 5592 ft | 233 kts | 82° |
| 2026-05-07 18:59 | 39.46524 | 2.50767 | 5310 ft | 233 kts | 82° |
| 2026-05-07 19:00 | 39.46742 | 2.52849 | 5031 ft | 233 kts | 80° |
| 2026-05-07 19:00 | 39.47182 | 2.54866 | 4696 ft | 234 kts | 66° |
| 2026-05-07 19:00 | 39.47945 | 2.56730 | 4248 ft | 241 kts | 59° |
| 2026-05-07 19:00 | 39.48831 | 2.58598 | 3790 ft | 244 kts | 59° |
| 2026-05-07 19:01 | 39.49710 | 2.60457 | 3287 ft | 240 kts | 59° |
| 2026-05-07 19:01 | 39.50578 | 2.62290 | 2808 ft | 237 kts | 59° |
| 2026-05-07 19:01 | 39.51429 | 2.64090 | 2386 ft | 231 kts | 59° |
| 2026-05-07 19:01 | 39.52221 | 2.65768 | 2345 ft | 204 kts | 59° |
| 2026-05-07 19:02 | 39.52913 | 2.67234 | 2338 ft | 179 kts | 58° |
| 2026-05-07 19:02 | 39.53556 | 2.68591 | 2146 ft | 176 kts | 60° |
| 2026-05-07 19:02 | 39.54227 | 2.70005 | 1614 ft | 180 kts | 59° |
| 2026-05-07 19:02 | 39.54932 | 2.71403 | 2503 ft | 177 kts | 59° |
| 2026-05-07 19:03 | 39.55389 | 2.72814 | 3733 ft | 176 kts | 77° |
| 2026-05-07 19:03 | 39.55595 | 2.74465 | 4110 ft | 193 kts | 76° |
| 2026-05-07 19:03 | 39.55992 | 2.76118 | 3869 ft | 187 kts | 68° |
| 2026-05-07 19:03 | 39.56558 | 2.77638 | 3992 ft | 189 kts | 62° |
| 2026-05-07 19:04 | 39.57166 | 2.79065 | 4026 ft | 190 kts | 62° |
| 2026-05-07 19:04 | 39.57804 | 2.80569 | 4014 ft | 190 kts | 62° |
| 2026-05-07 19:04 | 39.58438 | 2.82050 | 4013 ft | 189 kts | 62° |
| 2026-05-07 19:04 | 39.59127 | 2.83509 | 3995 ft | 191 kts | 54° |
| 2026-05-07 19:05 | 39.59982 | 2.84886 | 3998 ft | 207 kts | 52° |
| 2026-05-07 19:05 | 39.60912 | 2.86402 | 4022 ft | 219 kts | 52° |
| 2026-05-07 19:05 | 39.61864 | 2.87975 | 4001 ft | 223 kts | 53° |
| 2026-05-07 19:05 | 39.62823 | 2.89575 | 4002 ft | 225 kts | 53° |
| 2026-05-07 19:06 | 39.63777 | 2.91182 | 4014 ft | 227 kts | 53° |
| 2026-05-07 19:06 | 39.65821 | 2.94651 | 4005 ft | 252 kts | 53° |
| 2026-05-07 19:06 | 39.66898 | 2.96481 | 4005 ft | 256 kts | 53° |
| 2026-05-07 19:07 | 39.67973 | 2.98313 | 4004 ft | 256 kts | 53° |
| 2026-05-07 19:07 | 39.68967 | 3.00232 | 3991 ft | 256 kts | 68° |
| 2026-05-07 19:07 | 39.69240 | 3.02466 | 4036 ft | 256 kts | 88° |
| 2026-05-07 19:07 | 39.69252 | 3.04780 | 4014 ft | 256 kts | 89° |
| 2026-05-07 19:08 | 39.69227 | 3.07074 | 4012 ft | 249 kts | 97° |
| 2026-05-07 19:08 | 39.68653 | 3.09091 | 4014 ft | 234 kts | 127° |
| 2026-05-07 19:08 | 39.67428 | 3.10351 | 4007 ft | 222 kts | 157° |
| 2026-05-07 19:08 | 39.65947 | 3.10616 | 4029 ft | 209 kts | 179° |
| 2026-05-07 19:09 | 39.64540 | 3.10484 | 4004 ft | 197 kts | 182° |
| 2026-05-07 19:09 | 39.63177 | 3.10332 | 4011 ft | 196 kts | 181° |
| 2026-05-07 19:09 | 39.61826 | 3.10166 | 4026 ft | 195 kts | 182° |
| 2026-05-07 19:09 | 39.60489 | 3.09839 | 3991 ft | 198 kts | 203° |
| 2026-05-07 19:10 | 39.59437 | 3.08684 | 3978 ft | 203 kts | 229° |
| 2026-05-07 19:10 | 39.58600 | 3.07179 | 4027 ft | 208 kts | 231° |
| 2026-05-07 19:10 | 39.57783 | 3.05651 | 4037 ft | 208 kts | 232° |
| 2026-05-07 19:10 | 39.56948 | 3.04127 | 4015 ft | 208 kts | 232° |
| 2026-05-07 19:11 | 39.56072 | 3.02619 | 4016 ft | 210 kts | 232° |
| 2026-05-07 19:11 | 39.55191 | 3.01120 | 4025 ft | 208 kts | 232° |
| 2026-05-07 19:11 | 39.54307 | 2.99629 | 4036 ft | 209 kts | 231° |
| 2026-05-07 19:11 | 39.53446 | 2.98145 | 4004 ft | 208 kts | 231° |
| 2026-05-07 19:12 | 39.52603 | 2.96632 | 3998 ft | 206 kts | 232° |
| 2026-05-07 19:12 | 39.51781 | 2.95152 | 3975 ft | 206 kts | 231° |
| 2026-05-07 19:12 | 39.50944 | 2.93641 | 4006 ft | 205 kts | 231° |
| 2026-05-07 19:12 | 39.50112 | 2.92132 | 4054 ft | 205 kts | 232° |
| 2026-05-07 19:13 | 39.49280 | 2.90626 | 4026 ft | 206 kts | 231° |
| 2026-05-07 19:13 | 39.48444 | 2.89107 | 3951 ft | 207 kts | 232° |
| 2026-05-07 19:13 | 39.47607 | 2.87602 | 3959 ft | 206 kts | 232° |
| 2026-05-07 19:13 | 39.46757 | 2.86099 | 3968 ft | 207 kts | 232° |
| 2026-05-07 19:14 | 39.45923 | 2.84600 | 3879 ft | 209 kts | 232° |
| 2026-05-07 19:14 | 39.45076 | 2.83074 | 3663 ft | 209 kts | 231° |
| 2026-05-07 19:14 | 39.44237 | 2.81538 | 3470 ft | 209 kts | 232° |
| 2026-05-07 19:14 | 39.43395 | 2.80003 | 3225 ft | 208 kts | 231° |
| 2026-05-07 19:15 | 39.42559 | 2.78519 | 3024 ft | 205 kts | 232° |
| 2026-05-07 19:15 | 39.41720 | 2.77018 | 2961 ft | 206 kts | 232° |
| 2026-05-07 19:15 | 39.40886 | 2.75530 | 3020 ft | 205 kts | 231° |
| 2026-05-07 19:15 | 39.40051 | 2.74040 | 2968 ft | 204 kts | 231° |
| 2026-05-07 19:16 | 39.39509 | 2.73057 | 3016 ft | 202 kts | 231° |
| 2026-05-07 19:16 | 39.38415 | 2.71081 | 3075 ft | 204 kts | 232° |
| 2026-05-07 19:16 | 39.37586 | 2.69591 | 2995 ft | 204 kts | 231° |
| 2026-05-07 19:16 | 39.36771 | 2.68092 | 3005 ft | 204 kts | 232° |
| 2026-05-07 19:17 | 39.35959 | 2.66588 | 2968 ft | 204 kts | 235° |
| 2026-05-07 19:17 | 39.35550 | 2.65466 | 2950 ft | 206 kts | 258° |
| 2026-05-07 19:17 | 39.35432 | 2.63624 | 2986 ft | 208 kts | 270° |
| 2026-05-07 19:17 | 39.35447 | 2.61736 | 3030 ft | 211 kts | 271° |
| 2026-05-07 19:18 | 39.35460 | 2.59852 | 2977 ft | 208 kts | 272° |
| 2026-05-07 19:18 | 39.35468 | 2.57981 | 2975 ft | 209 kts | 271° |
| 2026-05-07 19:18 | 39.35482 | 2.56098 | 2978 ft | 210 kts | 272° |
| 2026-05-07 19:18 | 39.35492 | 2.54219 | 2968 ft | 209 kts | 271° |
| 2026-05-07 19:19 | 39.35505 | 2.52342 | 2985 ft | 209 kts | 272° |
| 2026-05-07 19:19 | 39.35505 | 2.50488 | 3001 ft | 209 kts | 271° |
| 2026-05-07 19:19 | 39.35518 | 2.48616 | 3011 ft | 208 kts | 272° |
| 2026-05-07 19:19 | 39.35517 | 2.46752 | 2945 ft | 207 kts | 271° |
| 2026-05-07 19:20 | 39.35524 | 2.44901 | 2930 ft | 206 kts | 275° |
| 2026-05-07 19:20 | 39.35963 | 2.43207 | 2915 ft | 199 kts | 310° |
| 2026-05-07 19:20 | 39.37061 | 2.42201 | 2875 ft | 193 kts | 348° |
| 2026-05-07 19:20 | 39.38356 | 2.42279 | 2947 ft | 188 kts | 25° |
| 2026-05-07 19:21 | 39.39495 | 2.43118 | 3009 ft | 190 kts | 35° |
| 2026-05-07 19:21 | 39.40575 | 2.44103 | 2870 ft | 189 kts | 37° |
| 2026-05-07 19:21 | 39.41618 | 2.45085 | 2813 ft | 183 kts | 41° |
| 2026-05-07 19:21 | 39.42524 | 2.46213 | 2598 ft | 179 kts | 50° |
| 2026-05-07 19:22 | 39.43306 | 2.47451 | 2368 ft | 176 kts | 53° |
| 2026-05-07 19:22 | 39.44022 | 2.48717 | 2271 ft | 172 kts | 56° |
| 2026-05-07 19:22 | 39.44685 | 2.49980 | 2231 ft | 172 kts | 57° |
| 2026-05-07 19:22 | 39.45342 | 2.51283 | 2301 ft | 173 kts | 59° |
| 2026-05-07 19:23 | 39.45994 | 2.52617 | 2279 ft | 177 kts | 59° |
| 2026-05-07 19:23 | 39.46642 | 2.53963 | 2303 ft | 176 kts | 60° |
| 2026-05-07 19:23 | 39.47288 | 2.55319 | 2266 ft | 176 kts | 59° |
| 2026-05-07 19:23 | 39.47931 | 2.56673 | 2221 ft | 178 kts | 60° |
| 2026-05-07 19:24 | 39.48579 | 2.58047 | 1895 ft | 178 kts | 58° |
| 2026-05-07 19:24 | 39.49197 | 2.59359 | 1599 ft | 163 kts | 59° |
| 2026-05-07 19:24 | 39.49764 | 2.60559 | 1346 ft | 152 kts | 58° |
| 2026-05-07 19:24 | 39.50323 | 2.61736 | 1283 ft | 155 kts | 58° |
| 2026-05-07 19:25 | 39.50881 | 2.62922 | 1199 ft | 154 kts | 59° |
| 2026-05-07 19:25 | 39.51424 | 2.64074 | 1132 ft | 152 kts | 58° |
| 2026-05-07 19:25 | 39.51964 | 2.65218 | 851 ft | 142 kts | 58° |
| 2026-05-07 19:25 | 39.52468 | 2.66272 | 643 ft | 141 kts | 59° |
| 2026-05-07 19:26 | 39.52992 | 2.67386 | 512 ft | 142 kts | 60° |
| 2026-05-07 19:26 | 39.53534 | 2.68569 | 483 ft | 169 kts | 58° |
| 2026-05-07 19:26 | 39.54132 | 2.69818 | 278 ft | 153 kts | 58° |
| 2026-05-07 19:26 | 39.54648 | 2.70916 | 84 ft | 133 kts | 58° |
| 2026-05-07 19:27 | 39.55057 | 2.71779 | 33 ft | 61 kts | 57° |
| 2026-05-07 19:27 | 39.55133 | 2.71941 | 32 ft | 16 kts | 59° |
| 2026-05-07 19:27 | 39.55205 | 2.72096 | 32 ft | 23 kts | 59° |
| 2026-05-07 19:27 | 39.55290 | 2.72286 | 32 ft | 19 kts | 71° |
| 2026-05-07 19:28 | 39.55207 | 2.72396 | 32 ft | 21 kts | 152° |
| 2026-05-07 19:28 | 39.55162 | 2.72455 | 32 ft | 10 kts | 87° |
| 2026-05-07 19:28 | 39.55205 | 2.72552 | 32 ft | 16 kts | 56° |
| 2026-05-07 19:28 | 39.55273 | 2.72698 | 32 ft | 22 kts | 58° |
| 2026-05-07 19:29 | 39.55328 | 2.72814 | 32 ft | 13 kts | 58° |
| 2026-05-07 19:29 | 39.55373 | 2.72903 | 32 ft | 1 kts | 57° |
| 2026-05-07 19:29 | 39.55384 | 2.72934 | 32 ft | 6 kts | 86° |
| 2026-05-07 19:29 | 39.55350 | 2.72990 | 32 ft | 12 kts | 142° |
| 2026-05-07 19:30 | 39.55255 | 2.73028 | 32 ft | 18 kts | 201° |
| 2026-05-07 19:30 | 39.55190 | 2.72944 | 32 ft | 6 kts | 178° |
| 2026-05-07 19:30 | 39.55150 | 2.72964 | 32 ft | 6 kts | 165° |
| 2026-05-07 19:30 | 39.55132 | 2.72970 | 32 ft | 0 kts | 165° |
| 2026-05-07 19:34 | 39.55133 | 2.72970 | 32 ft | 0 kts | 165° |